createdAt,value
2022-08-26T00:00:00.272Z,17.90
2022-08-26T00:02:30.075Z,17.90
2022-08-26T00:04:57.598Z,17.90
2022-08-26T00:07:24.827Z,17.80
2022-08-26T00:09:54.424Z,17.80
2022-08-26T00:12:31.560Z,17.80
2022-08-26T00:15:07.662Z,17.80
2022-08-26T00:17:40.303Z,17.80
2022-08-26T00:20:10.686Z,17.80
2022-08-26T00:22:56.784Z,17.80
2022-08-26T00:25:24.626Z,17.90
2022-08-26T00:27:52.245Z,17.90
2022-08-26T00:30:24.680Z,17.90
2022-08-26T00:32:55.189Z,17.80
2022-08-26T00:35:24.515Z,17.80
2022-08-26T00:37:56.815Z,17.80
2022-08-26T00:40:34.713Z,17.80
2022-08-26T00:43:09.368Z,17.80
2022-08-26T00:45:44.200Z,17.70
2022-08-26T00:48:14.952Z,17.70
2022-08-26T00:50:50.668Z,17.70
2022-08-26T00:53:23.979Z,17.70
2022-08-26T00:56:03.851Z,17.70
2022-08-26T00:58:36.111Z,17.80
2022-08-26T01:01:03.561Z,17.80
2022-08-26T01:03:35.790Z,17.90
2022-08-26T01:06:03.919Z,17.90
2022-08-26T01:08:31.591Z,17.90
2022-08-26T01:11:01.465Z,18.00
2022-08-26T01:13:30.404Z,18.00
2022-08-26T01:16:01.257Z,18.10
2022-08-26T01:18:31.488Z,18.10
2022-08-26T01:21:19.620Z,18.10
2022-08-26T01:23:50.317Z,18.10
2022-08-26T01:26:25.336Z,18.20
2022-08-26T01:28:56.703Z,18.30
2022-08-26T01:31:27.488Z,18.30
2022-08-26T01:34:02.127Z,18.30
2022-08-26T01:36:30.089Z,18.40
2022-08-26T01:38:57.645Z,18.40
2022-08-26T01:41:27.437Z,18.40
2022-08-26T01:43:57.996Z,18.40
2022-08-26T01:46:27.701Z,18.40
2022-08-26T01:48:56.898Z,18.50
2022-08-26T01:51:27.464Z,18.50
2022-08-26T01:53:55.376Z,18.50
2022-08-26T01:56:24.047Z,18.50
2022-08-26T01:58:55.392Z,18.40
2022-08-26T02:01:29.167Z,18.40
2022-08-26T02:04:19.331Z,18.40
2022-08-26T02:06:48.854Z,18.40
2022-08-26T02:09:17.923Z,18.30
2022-08-26T02:11:48.588Z,18.30
2022-08-26T02:14:26.975Z,18.30
2022-08-26T02:16:55.989Z,18.30
2022-08-26T02:19:29.076Z,18.20
2022-08-26T02:22:00.255Z,18.10
2022-08-26T02:24:30.317Z,18.00
2022-08-26T02:26:58.573Z,18.00
2022-08-26T02:29:27.520Z,18.00
2022-08-26T02:31:56.643Z,18.00
2022-08-26T02:34:31.335Z,17.90
2022-08-26T02:37:00.914Z,17.90
2022-08-26T02:39:29.754Z,17.90
2022-08-26T02:41:57.677Z,17.80
2022-08-26T02:44:25.808Z,17.70
2022-08-26T02:46:54.215Z,17.70
2022-08-26T02:49:23.765Z,17.70
2022-08-26T02:51:52.266Z,17.60
2022-08-26T02:54:21.557Z,17.60
2022-08-26T02:56:51.996Z,17.60
2022-08-26T02:59:19.272Z,17.60
2022-08-26T03:01:52.121Z,17.60
2022-08-26T03:04:25.732Z,17.60
2022-08-26T03:06:53.985Z,17.60
2022-08-26T03:09:23.472Z,17.60
2022-08-26T03:11:51.484Z,17.50
2022-08-26T03:14:18.885Z,17.50
2022-08-26T03:16:48.428Z,17.50
2022-08-26T03:19:17.670Z,17.50
2022-08-26T03:21:45.125Z,17.50
2022-08-26T03:24:17.243Z,17.50
2022-08-26T03:26:52.443Z,17.50
2022-08-26T03:29:41.623Z,17.40
2022-08-26T03:32:09.667Z,17.40
2022-08-26T03:34:37.912Z,17.40
2022-08-26T03:37:06.118Z,17.40
2022-08-26T03:39:33.371Z,17.30
2022-08-26T03:42:00.719Z,17.30
2022-08-26T03:44:27.947Z,17.30
2022-08-26T03:46:55.499Z,17.30
2022-08-26T03:49:22.751Z,17.30
2022-08-26T03:51:50.296Z,17.20
2022-08-26T03:54:17.884Z,17.20
2022-08-26T03:56:46.584Z,17.20
2022-08-26T03:59:14.061Z,17.10
2022-08-26T04:01:41.777Z,17.10
2022-08-26T04:04:09.612Z,17.10
2022-08-26T04:06:44.704Z,17.10
2022-08-26T04:09:19.486Z,17.20
2022-08-26T04:11:50.750Z,17.20
2022-08-26T04:14:21.262Z,17.20
2022-08-26T04:16:49.435Z,17.20
2022-08-26T04:19:17.734Z,17.20
2022-08-26T04:21:46.680Z,17.20
2022-08-26T04:24:15.806Z,17.20
2022-08-26T04:26:44.960Z,17.30
2022-08-26T04:29:18.183Z,17.30
2022-08-26T04:31:48.204Z,17.30
2022-08-26T04:34:16.335Z,17.40
2022-08-26T04:36:44.626Z,17.40
2022-08-26T04:39:12.665Z,17.50
2022-08-26T04:41:40.135Z,17.50
2022-08-26T04:44:07.880Z,17.60
2022-08-26T04:46:35.922Z,17.60
2022-08-26T04:49:09.329Z,17.80
2022-08-26T04:51:37.266Z,17.80
2022-08-26T04:54:07.110Z,17.90
2022-08-26T04:56:37.509Z,18.00
2022-08-26T04:59:08.094Z,18.10
2022-08-26T05:01:46.807Z,18.10
2022-08-26T05:04:16.211Z,18.20
2022-08-26T05:06:46.926Z,18.30
2022-08-26T05:09:15.211Z,18.40
2022-08-26T05:11:43.187Z,18.40
2022-08-26T05:14:10.630Z,18.60
2022-08-26T05:16:40.311Z,18.70
2022-08-26T05:19:08.410Z,18.90
2022-08-26T05:21:37.114Z,19.00
2022-08-26T05:24:06.589Z,19.10
2022-08-26T05:26:34.093Z,19.30
2022-08-26T05:29:01.500Z,19.40
2022-08-26T05:31:31.383Z,19.50
2022-08-26T05:34:03.495Z,19.60
2022-08-26T05:36:33.904Z,19.70
2022-08-26T05:39:03.252Z,19.80
2022-08-26T05:41:36.165Z,19.90
2022-08-26T05:44:07.024Z,20.00
2022-08-26T05:46:34.968Z,20.30
2022-08-26T05:49:04.084Z,20.40
2022-08-26T05:51:31.555Z,20.50
2022-08-26T05:53:59.346Z,20.60
2022-08-26T05:56:28.020Z,20.70
2022-08-26T05:58:56.501Z,20.90
2022-08-26T06:01:27.701Z,21.10
2022-08-26T06:04:01.879Z,21.20
2022-08-26T06:06:32.355Z,21.50
2022-08-26T06:09:00.942Z,21.70
2022-08-26T06:11:29.801Z,21.80
2022-08-26T06:14:03.501Z,22.10
2022-08-26T06:16:35.480Z,23.00
2022-08-26T06:19:10.437Z,24.70
2022-08-26T06:21:40.581Z,26.70
2022-08-26T06:24:30.681Z,28.10
2022-08-26T06:27:02.000Z,29.50
2022-08-26T06:29:33.161Z,30.50
2022-08-26T06:32:01.722Z,31.40
2022-08-26T06:34:30.729Z,32.20
2022-08-26T06:37:01.320Z,33.00
2022-08-26T06:39:30.771Z,33.00
2022-08-26T06:41:59.198Z,33.40
2022-08-26T06:44:27.227Z,33.70
2022-08-26T06:46:54.760Z,33.70
2022-08-26T06:49:26.633Z,34.20
2022-08-26T06:51:58.724Z,34.50
2022-08-26T06:54:27.802Z,34.70
2022-08-26T06:56:57.059Z,34.90
2022-08-26T06:59:25.014Z,35.30
2022-08-26T07:01:52.588Z,35.60
2022-08-26T07:04:23.197Z,35.80
2022-08-26T07:06:53.578Z,35.60
2022-08-26T07:09:24.059Z,35.60
2022-08-26T07:11:52.524Z,36.00
2022-08-26T07:14:21.067Z,36.20
2022-08-26T07:16:50.091Z,36.30
2022-08-26T07:19:30.368Z,36.40
2022-08-26T07:22:02.054Z,36.80
2022-08-26T07:24:29.466Z,36.90
2022-08-26T07:27:01.456Z,37.20
2022-08-26T07:29:31.065Z,37.10
2022-08-26T07:31:58.716Z,37.50
2022-08-26T07:34:27.423Z,37.60
2022-08-26T07:36:55.374Z,38.00
2022-08-26T07:39:26.156Z,38.10
2022-08-26T07:41:54.032Z,38.20
2022-08-26T07:44:21.418Z,38.10
2022-08-26T07:46:52.440Z,38.10
2022-08-26T07:49:23.634Z,38.50
2022-08-26T07:51:51.545Z,38.60
2022-08-26T07:54:19.332Z,38.50
2022-08-26T07:56:48.609Z,38.90
2022-08-26T07:59:17.364Z,38.90
2022-08-26T08:01:45.453Z,39.00
2022-08-26T08:04:14.664Z,39.50
2022-08-26T08:06:43.932Z,39.50
2022-08-26T08:09:14.148Z,39.10
2022-08-26T08:11:45.002Z,38.90
2022-08-26T08:14:13.335Z,38.80
2022-08-26T08:16:42.553Z,38.90
2022-08-26T08:19:14.072Z,38.80
2022-08-26T08:21:42.576Z,39.40
2022-08-26T08:24:10.909Z,39.50
2022-08-26T08:26:38.306Z,39.60
2022-08-26T08:29:08.057Z,39.40
2022-08-26T08:31:58.023Z,39.60
2022-08-26T08:34:25.731Z,39.70
2022-08-26T08:36:53.830Z,39.80
2022-08-26T08:39:22.499Z,39.30
2022-08-26T08:41:55.416Z,38.40
2022-08-26T08:47:03.704Z,37.60
2022-08-26T08:49:32.718Z,36.50
2022-08-26T08:52:07.030Z,35.90
2022-08-26T08:54:34.218Z,35.40
2022-08-26T08:57:11.043Z,34.80
2022-08-26T08:59:47.741Z,34.70
2022-08-26T09:02:24.061Z,34.60
2022-08-26T09:05:15.148Z,34.30
2022-08-26T09:07:57.787Z,34.30
2022-08-26T09:10:46.228Z,34.00
2022-08-26T09:13:25.260Z,33.50
2022-08-26T09:16:14.038Z,33.70
2022-08-26T09:19:10.961Z,33.70
2022-08-26T09:21:38.446Z,34.00
2022-08-26T09:24:07.503Z,34.00
2022-08-26T09:26:43.253Z,34.20
2022-08-26T09:29:43.254Z,34.20
2022-08-26T09:32:21.264Z,33.90
2022-08-26T09:34:59.621Z,33.80
2022-08-26T09:40:40.004Z,34.20
2022-08-26T09:43:16.028Z,34.10
2022-08-26T09:45:59.259Z,34.30
2022-08-26T09:48:37.046Z,34.20
2022-08-26T09:51:28.379Z,33.90
2022-08-26T09:53:59.968Z,33.90
2022-08-26T09:56:29.649Z,34.10
2022-08-26T09:58:58.449Z,34.20
2022-08-26T10:01:37.564Z,34.10
2022-08-26T10:04:10.422Z,34.30
2022-08-26T10:06:43.785Z,34.50
2022-08-26T10:09:19.727Z,34.60
2022-08-26T10:11:57.210Z,34.70
2022-08-26T10:14:39.836Z,34.50
2022-08-26T10:17:28.164Z,34.40
2022-08-26T10:20:22.856Z,34.60
2022-08-26T10:23:14.943Z,34.60
2022-08-26T10:25:56.978Z,34.70
2022-08-26T10:28:32.663Z,34.90
2022-08-26T10:31:09.327Z,34.80
2022-08-26T10:33:38.795Z,35.10
2022-08-26T10:36:36.440Z,35.30
2022-08-26T10:39:18.259Z,35.50
2022-08-26T10:41:50.547Z,35.70
2022-08-26T10:44:19.385Z,35.70
2022-08-26T10:46:55.097Z,35.20
2022-08-26T10:49:22.356Z,34.70
2022-08-26T10:51:57.821Z,34.60
2022-08-26T10:54:40.562Z,34.70
2022-08-26T10:57:23.519Z,34.10
2022-08-26T10:59:53.952Z,34.00
2022-08-26T11:02:47.136Z,33.80
2022-08-26T11:05:19.831Z,33.70
2022-08-26T11:07:52.701Z,33.90
2022-08-26T11:10:42.273Z,34.20
2022-08-26T11:13:10.508Z,34.30
2022-08-26T11:15:38.410Z,34.10
2022-08-26T11:18:09.086Z,33.70
2022-08-26T11:20:45.987Z,33.30
2022-08-26T11:23:22.999Z,33.30
2022-08-26T11:25:59.095Z,33.50
2022-08-26T11:28:38.593Z,33.70
2022-08-26T11:31:26.217Z,33.60
2022-08-26T11:34:08.716Z,33.40
2022-08-26T11:36:55.942Z,33.30
2022-08-26T11:39:53.988Z,33.50
2022-08-26T11:42:23.269Z,33.70
2022-08-26T11:44:50.889Z,34.10
2022-08-26T11:47:29.259Z,34.50
2022-08-26T11:50:20.411Z,34.40
2022-08-26T11:52:52.259Z,34.80
2022-08-26T11:55:20.395Z,34.90
2022-08-26T11:57:54.619Z,34.80
2022-08-26T12:00:27.094Z,34.70
2022-08-26T12:02:55.709Z,34.50
2022-08-26T12:05:31.221Z,34.30
2022-08-26T12:08:07.139Z,34.40
2022-08-26T12:10:35.568Z,34.30
2022-08-26T12:13:04.446Z,34.10
2022-08-26T12:15:34.258Z,34.10
2022-08-26T12:18:22.749Z,33.90
2022-08-26T12:20:56.787Z,33.60
2022-08-26T12:23:27.026Z,33.80
2022-08-26T12:26:12.914Z,34.10
2022-08-26T12:28:47.009Z,34.00
2022-08-26T12:31:22.533Z,34.10
2022-08-26T12:33:50.327Z,34.10
2022-08-26T12:36:24.644Z,34.00
2022-08-26T12:38:53.752Z,33.60
2022-08-26T12:41:43.845Z,33.20
2022-08-26T12:44:53.216Z,33.10
2022-08-26T12:47:35.207Z,33.30
2022-08-26T12:50:20.673Z,33.40
2022-08-26T12:53:08.949Z,32.90
2022-08-26T12:55:41.226Z,33.10
2022-08-26T12:58:26.300Z,32.80
2022-08-26T13:00:58.442Z,32.70
2022-08-26T13:03:44.580Z,32.80
2022-08-26T13:06:15.919Z,32.90
2022-08-26T13:08:46.262Z,33.00
2022-08-26T13:11:20.574Z,32.90
2022-08-26T13:13:51.811Z,32.80
2022-08-26T13:16:20.961Z,32.60
2022-08-26T13:18:50.178Z,32.50
2022-08-26T13:21:22.459Z,32.40
2022-08-26T13:23:50.521Z,32.00
2022-08-26T13:26:18.537Z,32.00
2022-08-26T13:28:45.664Z,32.10
2022-08-26T13:31:29.705Z,32.30
2022-08-26T13:33:57.745Z,32.40
2022-08-26T13:36:25.087Z,32.60
2022-08-26T13:38:52.557Z,32.80
2022-08-26T13:41:29.512Z,33.00
2022-08-26T13:43:59.487Z,32.80
2022-08-26T13:46:28.289Z,32.60
2022-08-26T13:48:56.722Z,32.70
2022-08-26T13:51:24.583Z,32.60
2022-08-26T13:53:52.652Z,32.50
2022-08-26T13:56:20.239Z,32.40
2022-08-26T13:58:48.085Z,32.30
2022-08-26T14:01:17.909Z,32.30
2022-08-26T14:03:46.416Z,32.30
2022-08-26T14:06:14.124Z,32.30
2022-08-26T14:08:42.434Z,32.30
2022-08-26T14:11:09.986Z,32.30
2022-08-26T14:13:37.647Z,32.40
2022-08-26T14:16:09.084Z,32.30
2022-08-26T14:18:42.167Z,32.00
2022-08-26T14:21:13.699Z,31.80
2022-08-26T14:23:41.446Z,31.60
2022-08-26T14:26:12.004Z,31.50
2022-08-26T14:28:59.132Z,31.70
2022-08-26T14:31:27.284Z,31.80
2022-08-26T14:33:57.465Z,31.80
2022-08-26T14:36:32.634Z,31.80
2022-08-26T14:39:02.595Z,31.70
2022-08-26T14:41:31.976Z,31.70
2022-08-26T14:44:04.018Z,31.60
2022-08-26T14:46:35.695Z,31.60
2022-08-26T14:49:06.222Z,31.80
2022-08-26T14:51:35.717Z,31.70
2022-08-26T14:54:18.092Z,31.80
2022-08-26T14:56:49.155Z,31.70
2022-08-26T14:59:20.795Z,31.70
2022-08-26T15:01:48.495Z,31.70
2022-08-26T15:04:15.919Z,31.60
2022-08-26T15:06:43.576Z,31.50
2022-08-26T15:09:10.911Z,31.50
2022-08-26T15:11:38.098Z,31.40
2022-08-26T15:14:05.704Z,31.40
2022-08-26T15:16:33.722Z,31.40
2022-08-26T15:19:04.462Z,31.40
2022-08-26T15:21:36.083Z,31.50
2022-08-26T15:24:04.747Z,31.40
2022-08-26T15:26:33.608Z,31.40
2022-08-26T15:29:04.865Z,31.40
2022-08-26T15:31:33.925Z,31.40
2022-08-26T15:34:05.684Z,31.30
2022-08-26T15:36:33.778Z,31.20
2022-08-26T15:39:02.000Z,31.00
2022-08-26T15:41:29.942Z,30.90
2022-08-26T15:44:03.474Z,30.90
2022-08-26T15:46:32.139Z,30.80
2022-08-26T15:48:59.859Z,30.60
2022-08-26T15:51:30.320Z,30.40
2022-08-26T15:53:58.733Z,30.40
2022-08-26T15:56:28.718Z,30.30
2022-08-26T15:58:56.252Z,30.30
2022-08-26T16:01:27.870Z,30.10
2022-08-26T16:03:55.975Z,30.10
2022-08-26T16:06:25.936Z,30.00
2022-08-26T16:08:53.853Z,29.80
2022-08-26T16:11:21.311Z,29.80
2022-08-26T16:13:48.893Z,29.70
2022-08-26T16:16:16.937Z,29.60
2022-08-26T16:18:44.459Z,29.50
2022-08-26T16:21:16.601Z,29.50
2022-08-26T16:23:45.575Z,29.40
2022-08-26T16:26:15.915Z,29.40
2022-08-26T16:28:43.759Z,29.30
2022-08-26T16:31:12.213Z,29.20
2022-08-26T16:33:39.986Z,29.10
2022-08-26T16:36:08.496Z,29.10
2022-08-26T16:38:37.657Z,28.90
2022-08-26T16:41:05.417Z,28.90
2022-08-26T16:43:32.961Z,28.80
2022-08-26T16:46:00.752Z,28.70
2022-08-26T16:48:28.025Z,28.60
2022-08-26T16:50:55.754Z,28.60
2022-08-26T16:53:24.056Z,28.50
2022-08-26T16:55:51.681Z,28.50
2022-08-26T16:58:21.996Z,28.40
2022-08-26T17:00:50.049Z,28.30
2022-08-26T17:03:17.291Z,28.20
2022-08-26T17:05:44.727Z,28.10
2022-08-26T17:08:14.624Z,28.10
2022-08-26T17:10:54.737Z,28.00
2022-08-26T17:13:25.986Z,27.80
2022-08-26T17:16:05.067Z,27.80
2022-08-26T17:18:33.822Z,27.60
2022-08-26T17:21:06.233Z,27.40
2022-08-26T17:23:34.226Z,27.30
2022-08-26T17:26:03.609Z,27.10
2022-08-26T17:28:30.919Z,26.90
2022-08-26T17:30:59.490Z,26.80
2022-08-26T17:33:47.848Z,26.60
2022-08-26T17:36:18.306Z,26.50
2022-08-26T17:38:45.693Z,26.30
2022-08-26T17:41:16.500Z,26.20
2022-08-26T17:43:43.922Z,26.10
2022-08-26T17:46:13.059Z,26.00
2022-08-26T17:48:41.270Z,25.80
2022-08-26T17:51:12.774Z,25.60
2022-08-26T17:53:41.346Z,25.60
2022-08-26T17:56:10.729Z,25.40
2022-08-26T17:58:38.868Z,25.20
2022-08-26T18:01:07.394Z,25.10
2022-08-26T18:03:38.620Z,25.00
2022-08-26T18:06:10.789Z,24.90
2022-08-26T18:08:39.059Z,24.80
2022-08-26T18:11:11.686Z,24.70
2022-08-26T18:13:45.855Z,24.50
2022-08-26T18:16:16.721Z,24.40
2022-08-26T18:18:44.571Z,24.30
2022-08-26T18:21:14.476Z,24.20
2022-08-26T18:23:42.340Z,24.10
2022-08-26T18:26:11.289Z,24.00
2022-08-26T18:28:39.621Z,23.90
2022-08-26T18:31:09.011Z,23.80
2022-08-26T18:33:36.248Z,23.80
2022-08-26T18:36:06.863Z,23.70
2022-08-26T18:38:34.013Z,23.70
2022-08-26T18:41:04.561Z,23.60
2022-08-26T18:43:31.940Z,23.50
2022-08-26T18:46:05.577Z,23.50
2022-08-26T18:48:33.191Z,23.40
2022-08-26T18:51:00.554Z,23.30
2022-08-26T18:53:29.596Z,23.30
2022-08-26T18:55:57.435Z,23.20
2022-08-26T18:58:25.701Z,23.10
2022-08-26T19:00:56.364Z,23.00
2022-08-26T19:03:32.964Z,23.00
2022-08-26T19:06:00.217Z,23.00
2022-08-26T19:08:35.151Z,22.90
2022-08-26T19:11:31.657Z,22.80
2022-08-26T19:14:03.216Z,22.90
2022-08-26T19:16:34.268Z,22.80
2022-08-26T19:19:02.227Z,22.80
2022-08-26T19:21:38.672Z,22.80
2022-08-26T19:24:27.474Z,22.70
2022-08-26T19:27:01.523Z,22.70
2022-08-26T19:29:33.536Z,22.70
2022-08-26T19:32:02.462Z,22.60
2022-08-26T19:34:29.643Z,22.50
2022-08-26T19:36:58.712Z,22.40
2022-08-26T19:39:26.626Z,22.40
2022-08-26T19:41:53.842Z,22.30
2022-08-26T19:44:42.890Z,22.30
2022-08-26T19:47:11.516Z,22.20
2022-08-26T19:49:40.277Z,22.10
2022-08-26T19:52:10.002Z,22.10
2022-08-26T19:54:37.638Z,22.10
2022-08-26T19:57:05.593Z,22.10
2022-08-26T19:59:33.158Z,22.00
2022-08-26T20:02:01.802Z,22.00
2022-08-26T20:04:31.174Z,22.00
2022-08-26T20:07:00.516Z,22.00
2022-08-26T20:09:29.809Z,21.90
2022-08-26T20:12:06.440Z,21.90
2022-08-26T20:14:35.627Z,21.80
2022-08-26T20:17:04.268Z,21.80
2022-08-26T20:19:51.711Z,21.80
2022-08-26T20:22:19.546Z,21.80
2022-08-26T20:24:47.803Z,21.70
2022-08-26T20:27:15.798Z,21.70
2022-08-26T20:30:04.560Z,21.60
2022-08-26T20:32:35.511Z,21.60
2022-08-26T20:35:03.652Z,21.50
2022-08-26T20:37:30.870Z,21.50
2022-08-26T20:39:58.649Z,21.40
2022-08-26T20:42:26.594Z,21.30
2022-08-26T20:44:54.994Z,21.30
2022-08-26T20:47:23.444Z,21.20
2022-08-26T20:49:52.342Z,21.20
2022-08-26T20:52:19.995Z,21.10
2022-08-26T20:54:47.260Z,21.00
2022-08-26T20:57:14.750Z,21.00
2022-08-26T20:59:43.054Z,21.00
2022-08-26T21:02:10.619Z,20.90
2022-08-26T21:04:37.917Z,20.80
2022-08-26T21:07:05.397Z,20.70
2022-08-26T21:09:33.094Z,20.70
2022-08-26T21:12:00.261Z,20.70
2022-08-26T21:14:27.307Z,20.60
2022-08-26T21:16:54.781Z,20.70
2022-08-26T21:19:22.281Z,20.60
2022-08-26T21:21:49.783Z,20.60
2022-08-26T21:24:17.463Z,20.50
2022-08-26T21:26:44.622Z,20.50
2022-08-26T21:29:13.799Z,20.50
2022-08-26T21:31:46.182Z,20.40
2022-08-26T21:34:18.003Z,20.40
2022-08-26T21:36:47.179Z,20.30
2022-08-26T21:39:15.446Z,20.30
2022-08-26T21:41:44.784Z,20.30
2022-08-26T21:44:14.214Z,20.20
2022-08-26T21:46:42.764Z,20.20
2022-08-26T21:49:12.569Z,20.20
2022-08-26T21:51:45.124Z,20.20
2022-08-26T21:54:32.074Z,20.20
2022-08-26T21:56:59.337Z,20.10
2022-08-26T21:59:26.581Z,20.10
2022-08-26T22:01:54.624Z,20.10
2022-08-26T22:04:22.357Z,20.10
2022-08-26T22:06:52.411Z,20.10
2022-08-26T22:09:23.359Z,20.10
2022-08-26T22:11:51.000Z,20.10
2022-08-26T22:14:22.166Z,20.00
2022-08-26T22:16:50.864Z,19.90
2022-08-26T22:19:20.239Z,19.90
2022-08-26T22:21:50.193Z,19.90
2022-08-26T22:24:19.352Z,19.80
2022-08-26T22:26:47.594Z,19.80
2022-08-26T22:29:15.133Z,19.80
2022-08-26T22:31:42.423Z,19.80
2022-08-26T22:34:13.241Z,19.80
2022-08-26T22:36:46.253Z,19.80
2022-08-26T22:39:15.394Z,19.70
2022-08-26T22:41:44.209Z,19.70
2022-08-26T22:44:31.713Z,19.70
2022-08-26T22:46:59.129Z,19.60
2022-08-26T22:49:26.459Z,19.60
2022-08-26T22:51:55.404Z,19.60
2022-08-26T22:54:23.114Z,19.60
2022-08-26T22:56:50.589Z,19.60
2022-08-26T22:59:18.128Z,19.50
2022-08-26T23:01:46.500Z,19.50
2022-08-26T23:04:14.251Z,19.50
2022-08-26T23:06:47.666Z,19.50
2022-08-26T23:09:18.147Z,19.50
2022-08-26T23:11:47.548Z,19.50
2022-08-26T23:14:15.747Z,19.40
2022-08-26T23:16:43.259Z,19.30
2022-08-26T23:19:12.877Z,19.30
2022-08-26T23:21:40.867Z,19.30
2022-08-26T23:24:08.849Z,19.30
2022-08-26T23:26:37.461Z,19.20
2022-08-26T23:29:06.299Z,19.20
2022-08-26T23:31:34.125Z,19.20
2022-08-26T23:34:21.289Z,19.30
2022-08-26T23:36:48.471Z,19.30
2022-08-26T23:39:15.971Z,19.20
2022-08-26T23:41:43.211Z,19.10
2022-08-26T23:44:10.884Z,19.00
2022-08-26T23:46:38.560Z,19.00
2022-08-26T23:49:05.898Z,19.00
2022-08-26T23:51:52.908Z,19.00
2022-08-26T23:54:20.199Z,19.00
2022-08-26T23:56:47.221Z,19.00
2022-08-26T23:59:15.693Z,19.00
